createdAt,value
2022-08-14T00:01:58.095Z,24.16
2022-08-14T00:04:34.495Z,24.05
2022-08-14T00:07:06.091Z,24.14
2022-08-14T00:09:34.607Z,24.14
2022-08-14T00:12:24.046Z,24.08
2022-08-14T00:14:53.141Z,23.88
2022-08-14T00:17:22.895Z,23.98
2022-08-14T00:19:49.646Z,23.83
2022-08-14T00:22:44.497Z,23.70
2022-08-14T00:25:10.309Z,23.66
2022-08-14T00:27:38.064Z,23.64
2022-08-14T00:30:10.908Z,23.61
2022-08-14T00:32:53.008Z,23.60
2022-08-14T00:36:33.607Z,23.52
2022-08-14T00:38:10.781Z,23.53
2022-08-14T00:40:37.852Z,23.44
2022-08-14T00:43:06.033Z,23.49
2022-08-14T00:45:32.893Z,23.49
2022-08-14T00:48:00.021Z,23.53
2022-08-14T00:50:30.425Z,23.42
2022-08-14T00:53:00.289Z,23.37
2022-08-14T00:55:30.133Z,23.35
2022-08-14T00:58:18.046Z,23.42
2022-08-14T01:00:50.921Z,23.35
2022-08-14T01:03:20.307Z,23.32
2022-08-14T01:05:51.667Z,23.24
2022-08-14T01:08:51.475Z,23.20
2022-08-14T01:11:19.019Z,23.13
2022-08-14T01:13:55.754Z,23.05
2022-08-14T01:16:30.882Z,23.03
2022-08-14T01:19:19.608Z,22.95
2022-08-14T01:21:52.836Z,22.89
2022-08-14T01:24:28.833Z,22.91
2022-08-14T01:27:00.547Z,22.72
2022-08-14T01:29:40.400Z,22.76
2022-08-14T01:32:23.122Z,22.78
2022-08-14T01:35:20.999Z,22.70
2022-08-14T01:37:54.391Z,22.58
2022-08-14T01:40:36.414Z,22.63
2022-08-14T01:43:18.868Z,22.58
2022-08-14T01:46:05.712Z,22.62
2022-08-14T01:48:37.154Z,22.59
2022-08-14T01:51:19.028Z,22.58
2022-08-14T01:53:54.838Z,22.74
2022-08-14T01:56:44.571Z,22.65
2022-08-14T01:59:37.945Z,22.61
2022-08-14T02:02:19.724Z,22.49
2022-08-14T02:04:55.084Z,22.36
2022-08-14T02:07:44.811Z,22.37
2022-08-14T02:10:12.872Z,22.40
2022-08-14T02:12:42.313Z,22.43
2022-08-14T02:15:09.469Z,22.31
2022-08-14T02:17:36.383Z,22.36
2022-08-14T02:20:08.576Z,22.33
2022-08-14T02:22:35.503Z,22.31
2022-08-14T02:25:14.407Z,22.30
2022-08-14T02:28:24.818Z,22.26
2022-08-14T02:30:32.023Z,22.23
2022-08-14T02:32:58.870Z,22.25
2022-08-14T02:35:32.931Z,22.17
2022-08-14T02:38:00.987Z,22.11
2022-08-14T02:40:33.914Z,22.16
2022-08-14T02:43:05.225Z,21.96
2022-08-14T02:45:38.322Z,22.02
2022-08-14T02:49:01.830Z,21.98
2022-08-14T02:51:00.906Z,22.07
2022-08-14T02:53:29.273Z,21.82
2022-08-14T02:56:03.048Z,21.84
2022-08-14T02:58:32.948Z,21.96
2022-08-14T03:01:01.188Z,21.95
2022-08-14T03:03:31.837Z,21.86
2022-08-14T03:06:02.643Z,21.85
2022-08-14T03:08:31.872Z,21.79
2022-08-14T03:10:59.883Z,21.95
2022-08-14T03:13:27.445Z,21.97
2022-08-14T03:15:58.056Z,21.82
2022-08-14T03:18:30.919Z,21.67
2022-08-14T03:21:07.780Z,21.73
2022-08-14T03:23:37.858Z,21.66
2022-08-14T03:26:07.150Z,21.69
2022-08-14T03:28:34.528Z,21.60
2022-08-14T03:31:04.386Z,21.64
2022-08-14T03:33:37.669Z,21.55
2022-08-14T03:37:39.353Z,21.53
2022-08-14T03:39:13.004Z,21.69
2022-08-14T03:41:45.415Z,21.70
2022-08-14T03:45:27.769Z,21.61
2022-08-14T03:46:58.581Z,21.43
2022-08-14T03:49:28.378Z,21.46
2022-08-14T03:51:57.573Z,21.42
2022-08-14T03:54:25.885Z,21.50
2022-08-14T03:56:54.608Z,21.50
2022-08-14T03:59:21.288Z,21.42
2022-08-14T04:01:57.932Z,21.47
2022-08-14T04:04:30.359Z,21.46
2022-08-14T04:06:58.789Z,21.38
2022-08-14T04:09:26.899Z,21.42
2022-08-14T04:11:54.217Z,21.33
2022-08-14T04:14:22.732Z,21.45
2022-08-14T04:16:50.813Z,21.29
2022-08-14T04:19:19.368Z,21.24
2022-08-14T04:22:02.232Z,21.27
2022-08-14T04:24:38.620Z,21.23
2022-08-14T04:27:11.562Z,21.06
2022-08-14T04:29:40.007Z,21.02
2022-08-14T04:33:00.794Z,21.08
2022-08-14T04:34:57.627Z,21.11
2022-08-14T04:37:43.574Z,21.07
2022-08-14T04:40:31.653Z,21.01
2022-08-14T04:43:17.604Z,21.02
2022-08-14T04:45:44.631Z,21.05
2022-08-14T04:48:38.781Z,20.90
2022-08-14T04:51:06.310Z,20.86
2022-08-14T04:53:36.211Z,20.97
2022-08-14T04:56:10.570Z,20.94
2022-08-14T04:58:58.820Z,20.69
2022-08-14T05:01:28.311Z,20.56
2022-08-14T05:03:55.989Z,20.61
2022-08-14T05:06:37.890Z,20.63
2022-08-14T05:09:07.403Z,20.54
2022-08-14T05:11:38.131Z,20.74
2022-08-14T05:14:34.642Z,20.65
2022-08-14T05:16:52.220Z,20.53
2022-08-14T05:19:26.866Z,20.67
2022-08-14T05:22:15.739Z,20.78
2022-08-14T05:24:51.367Z,20.80
2022-08-14T05:27:22.619Z,20.78
2022-08-14T05:29:53.250Z,20.93
2022-08-14T05:32:20.236Z,21.01
2022-08-14T05:34:47.046Z,21.07
2022-08-14T05:37:15.415Z,21.05
2022-08-14T05:39:42.933Z,21.10
2022-08-14T05:42:09.911Z,21.21
2022-08-14T05:44:36.874Z,21.42
2022-08-14T05:47:04.413Z,21.36
2022-08-14T05:49:33.177Z,21.24
2022-08-14T05:52:01.594Z,21.23
2022-08-14T05:54:30.707Z,21.29
2022-08-14T05:57:03.425Z,21.28
2022-08-14T05:59:36.509Z,21.26
2022-08-14T06:02:06.541Z,21.30
2022-08-14T06:04:33.072Z,21.33
2022-08-14T06:06:59.691Z,21.36
2022-08-14T06:09:26.522Z,21.19
2022-08-14T06:11:53.187Z,20.99
2022-08-14T06:14:24.081Z,20.91
2022-08-14T06:16:52.957Z,21.07
2022-08-14T06:19:20.512Z,21.09
2022-08-14T06:21:58.137Z,21.20
2022-08-14T06:24:26.237Z,21.33
2022-08-14T06:26:54.305Z,21.34
2022-08-14T06:29:32.391Z,21.36
2022-08-14T06:32:37.419Z,21.54
2022-08-14T06:35:03.291Z,21.65
2022-08-14T06:37:53.459Z,21.51
2022-08-14T06:40:29.075Z,21.48
2022-08-14T06:43:00.328Z,21.34
2022-08-14T06:45:30.244Z,21.40
2022-08-14T06:47:58.835Z,21.35
2022-08-14T06:50:28.727Z,21.27
2022-08-14T06:52:56.962Z,21.44
2022-08-14T06:55:27.977Z,21.36
2022-08-14T06:57:56.025Z,21.45
2022-08-14T07:00:27.394Z,21.53
2022-08-14T07:03:15.746Z,21.42
2022-08-14T07:05:58.092Z,21.56
2022-08-14T07:08:28.732Z,21.53
2022-08-14T07:11:01.564Z,21.54
2022-08-14T07:13:30.579Z,21.48
2022-08-14T07:15:58.719Z,21.62
2022-08-14T07:18:28.392Z,21.72
2022-08-14T07:20:56.514Z,21.71
2022-08-14T07:23:26.630Z,21.88
2022-08-14T07:25:56.631Z,21.89
2022-08-14T07:28:43.057Z,22.06
2022-08-14T07:31:12.113Z,22.17
2022-08-14T07:33:46.687Z,22.22
2022-08-14T07:36:27.958Z,22.27
2022-08-14T07:39:02.770Z,22.95
2022-08-14T07:41:31.229Z,23.29
2022-08-14T07:44:29.001Z,23.50
2022-08-14T07:46:49.598Z,23.79
2022-08-14T07:49:18.093Z,23.86
2022-08-14T07:51:45.315Z,23.92
2022-08-14T07:54:12.513Z,23.68
2022-08-14T07:56:47.007Z,23.54
2022-08-14T07:59:18.524Z,23.39
2022-08-14T08:01:48.099Z,23.63
2022-08-14T08:04:24.944Z,23.64
2022-08-14T08:06:54.129Z,23.75
2022-08-14T08:09:32.425Z,23.79
2022-08-14T08:12:04.672Z,23.85
2022-08-14T08:14:56.214Z,24.01
2022-08-14T08:17:23.614Z,24.01
2022-08-14T08:19:51.587Z,24.03
2022-08-14T08:22:18.621Z,24.02
2022-08-14T08:24:45.118Z,23.89
2022-08-14T08:27:21.292Z,23.78
2022-08-14T08:29:50.862Z,23.74
2022-08-14T08:32:18.309Z,23.89
2022-08-14T08:34:46.393Z,24.07
2022-08-14T08:37:14.539Z,24.06
2022-08-14T08:40:02.739Z,24.15
2022-08-14T08:42:31.412Z,24.36
2022-08-14T08:45:05.023Z,24.26
2022-08-14T08:47:41.179Z,24.49
2022-08-14T08:53:00.102Z,24.85
2022-08-14T08:55:37.036Z,24.83
2022-08-14T08:58:12.568Z,24.78
2022-08-14T09:00:48.807Z,25.20
2022-08-14T09:03:20.514Z,25.40
2022-08-14T09:05:56.203Z,25.51
2022-08-14T09:08:32.708Z,25.50
2022-08-14T09:11:19.534Z,25.74
2022-08-14T09:13:50.413Z,25.71
2022-08-14T09:16:21.210Z,26.03
2022-08-14T09:18:48.881Z,26.21
2022-08-14T09:21:16.371Z,26.35
2022-08-14T09:24:26.815Z,26.43
2022-08-14T09:26:30.188Z,26.48
2022-08-14T09:28:59.136Z,26.63
2022-08-14T09:31:28.767Z,26.97
2022-08-14T09:34:28.768Z,27.03
2022-08-14T09:37:20.005Z,27.28
2022-08-14T09:39:53.770Z,27.29
2022-08-14T09:42:34.037Z,27.40
2022-08-14T09:45:30.244Z,27.72
2022-08-14T09:47:57.565Z,27.98
2022-08-14T09:50:30.547Z,28.04
2022-08-14T09:53:04.484Z,28.29
2022-08-14T09:55:41.401Z,28.54
2022-08-14T09:58:15.024Z,28.71
2022-08-14T10:00:49.699Z,28.79
2022-08-14T10:03:33.982Z,28.82
2022-08-14T10:06:09.884Z,29.03
2022-08-14T10:09:00.405Z,29.30
2022-08-14T10:11:35.440Z,28.83
2022-08-14T10:14:21.104Z,28.61
2022-08-14T10:17:04.821Z,29.18
2022-08-14T10:19:35.279Z,29.72
2022-08-14T10:23:12.373Z,29.80
2022-08-14T10:24:52.331Z,29.86
2022-08-14T10:27:23.791Z,29.36
2022-08-14T10:30:00.931Z,29.66
2022-08-14T10:32:40.118Z,30.43
2022-08-14T10:35:16.759Z,30.82
2022-08-14T10:37:49.962Z,30.97
2022-08-14T10:40:44.035Z,31.01
2022-08-14T10:43:23.954Z,31.23
2022-08-14T10:46:21.627Z,31.54
2022-08-14T10:49:09.641Z,31.85
2022-08-14T10:51:41.561Z,32.03
2022-08-14T10:54:25.876Z,32.21
2022-08-14T10:57:18.642Z,32.12
2022-08-14T10:59:49.917Z,32.39
2022-08-14T11:02:45.136Z,32.53
2022-08-14T11:05:19.367Z,32.88
2022-08-14T11:07:57.079Z,32.95
2022-08-14T11:10:45.850Z,33.20
2022-08-14T11:13:25.654Z,32.97
2022-08-14T11:15:57.525Z,33.29
2022-08-14T11:18:32.540Z,33.74
2022-08-14T11:21:06.524Z,33.89
2022-08-14T11:23:38.591Z,33.96
2022-08-14T11:26:08.893Z,34.30
2022-08-14T11:28:46.975Z,34.35
2022-08-14T11:31:19.823Z,34.30
2022-08-14T11:33:57.823Z,34.54
2022-08-14T11:36:35.164Z,34.64
2022-08-14T11:39:34.521Z,35.04
2022-08-14T11:42:58.142Z,35.11
2022-08-14T11:45:00.185Z,35.10
2022-08-14T11:47:27.393Z,35.48
2022-08-14T11:50:13.301Z,35.72
2022-08-14T11:52:40.639Z,35.99
2022-08-14T11:55:12.838Z,36.14
2022-08-14T11:57:41.315Z,36.30
2022-08-14T12:00:14.756Z,36.46
2022-08-14T12:03:02.747Z,36.77
2022-08-14T12:05:39.830Z,36.89
2022-08-14T12:08:11.168Z,37.10
2022-08-14T12:10:43.303Z,36.97
2022-08-14T12:13:20.786Z,37.22
2022-08-14T12:16:06.598Z,37.39
2022-08-14T12:18:48.398Z,37.04
2022-08-14T12:21:19.618Z,37.15
2022-08-14T12:24:08.417Z,37.06
2022-08-14T12:26:40.998Z,37.80
2022-08-14T12:29:11.386Z,37.84
2022-08-14T12:31:44.707Z,38.21
2022-08-14T12:34:19.325Z,38.22
2022-08-14T12:36:48.625Z,38.40
2022-08-14T12:39:23.830Z,38.61
2022-08-14T12:41:57.283Z,38.52
2022-08-14T12:44:50.341Z,38.90
2022-08-14T12:47:17.821Z,39.01
2022-08-14T12:49:52.595Z,38.63
2022-08-14T12:52:42.971Z,39.18
2022-08-14T12:55:20.813Z,39.23
2022-08-14T12:57:53.374Z,39.28
2022-08-14T13:00:25.455Z,39.46
2022-08-14T13:02:55.818Z,40.18
2022-08-14T13:05:31.725Z,40.33
2022-08-14T13:08:03.691Z,39.91
2022-08-14T13:10:47.444Z,40.12
2022-08-14T13:13:19.684Z,39.54
2022-08-14T13:15:48.256Z,39.32
2022-08-14T13:18:26.415Z,39.74
2022-08-14T13:20:59.611Z,39.79
2022-08-14T13:23:32.974Z,40.35
2022-08-14T13:26:03.010Z,40.38
2022-08-14T13:28:32.728Z,40.53
2022-08-14T13:31:03.780Z,40.41
2022-08-14T13:33:40.601Z,40.87
2022-08-14T13:36:09.109Z,40.79
2022-08-14T13:38:35.632Z,40.66
2022-08-14T13:41:03.007Z,40.55
2022-08-14T13:43:36.553Z,40.64
2022-08-14T13:46:03.971Z,40.66
2022-08-14T13:48:36.377Z,40.74
2022-08-14T13:51:07.812Z,40.37
2022-08-14T13:54:07.028Z,40.21
2022-08-14T13:56:37.198Z,40.87
2022-08-14T13:59:04.916Z,40.60
2022-08-14T14:01:43.812Z,40.90
2022-08-14T14:04:18.965Z,41.43
2022-08-14T14:06:49.444Z,40.81
2022-08-14T14:09:22.715Z,41.39
2022-08-14T14:11:52.985Z,41.54
2022-08-14T14:14:44.618Z,41.44
2022-08-14T14:17:11.792Z,41.36
2022-08-14T14:19:41.301Z,41.26
2022-08-14T14:22:09.831Z,41.05
2022-08-14T14:24:36.689Z,41.13
2022-08-14T14:27:30.130Z,41.68
2022-08-14T14:29:55.616Z,41.77
2022-08-14T14:32:31.974Z,41.31
2022-08-14T14:35:03.752Z,41.08
2022-08-14T14:37:30.883Z,40.86
2022-08-14T14:40:53.539Z,41.37
2022-08-14T14:42:51.857Z,41.65
2022-08-14T14:45:22.169Z,41.12
2022-08-14T14:47:59.105Z,39.76
2022-08-14T14:50:26.527Z,39.19
2022-08-14T14:52:54.067Z,39.01
2022-08-14T14:56:48.025Z,38.68
2022-08-14T14:58:31.857Z,38.18
2022-08-14T15:01:01.891Z,37.71
2022-08-14T15:03:29.652Z,37.47
2022-08-14T15:05:57.368Z,37.58
2022-08-14T15:08:26.452Z,38.34
2022-08-14T15:11:13.475Z,37.59
2022-08-14T15:13:43.001Z,37.55
2022-08-14T15:16:10.042Z,37.15
2022-08-14T15:18:40.091Z,37.11
2022-08-14T15:21:14.327Z,36.64
2022-08-14T15:23:44.509Z,36.74
2022-08-14T15:26:23.475Z,36.47
2022-08-14T15:29:02.723Z,36.85
2022-08-14T15:31:31.492Z,36.22
2022-08-14T15:34:44.380Z,37.18
2022-08-14T15:37:05.669Z,38.77
2022-08-14T15:39:38.419Z,40.70
2022-08-14T15:42:14.468Z,41.69
2022-08-14T15:44:50.759Z,41.37
2022-08-14T15:47:28.449Z,41.53
2022-08-14T15:49:58.386Z,41.96
2022-08-14T15:52:32.802Z,43.01
2022-08-14T15:55:14.433Z,43.15
2022-08-14T15:58:02.273Z,42.44
2022-08-14T16:00:50.053Z,42.28
2022-08-14T16:03:27.705Z,42.82
2022-08-14T16:06:10.621Z,43.13
2022-08-14T16:08:38.346Z,41.55
2022-08-14T16:11:08.341Z,40.10
2022-08-14T16:13:44.585Z,39.39
2022-08-14T16:16:47.544Z,38.62
2022-08-14T16:19:18.136Z,38.71
2022-08-14T16:21:58.412Z,40.50
2022-08-14T16:24:33.260Z,41.97
2022-08-14T16:27:01.371Z,42.58
2022-08-14T16:29:31.088Z,42.49
2022-08-14T16:32:01.717Z,41.88
2022-08-14T16:34:54.909Z,42.31
2022-08-14T16:37:23.454Z,42.47
2022-08-14T16:39:59.346Z,42.50
2022-08-14T16:42:39.302Z,42.60
2022-08-14T16:45:17.050Z,42.53
2022-08-14T16:47:44.247Z,42.25
2022-08-14T16:50:15.252Z,40.99
2022-08-14T16:53:02.092Z,38.69
2022-08-14T16:55:34.164Z,39.44
2022-08-14T16:58:22.029Z,39.61
2022-08-14T17:01:22.538Z,39.29
2022-08-14T17:04:25.124Z,38.48
2022-08-14T17:06:54.980Z,38.54
2022-08-14T17:09:43.151Z,38.44
2022-08-14T17:12:28.976Z,37.74
2022-08-14T17:15:09.946Z,37.96
2022-08-14T17:17:40.160Z,37.70
2022-08-14T17:20:53.568Z,37.61
2022-08-14T17:23:02.953Z,37.26
2022-08-14T17:25:38.423Z,37.11
2022-08-14T17:31:02.419Z,36.71
2022-08-14T17:33:40.657Z,36.68
2022-08-14T17:36:10.993Z,36.27
2022-08-14T17:39:05.370Z,36.22
2022-08-14T17:41:38.761Z,36.88
2022-08-14T17:44:13.406Z,37.22
2022-08-14T17:46:55.238Z,37.27
2022-08-14T17:49:31.923Z,37.26
2022-08-14T17:52:16.726Z,37.23
2022-08-14T17:54:52.675Z,36.90
2022-08-14T17:57:28.600Z,36.81
2022-08-14T17:59:56.390Z,36.49
2022-08-14T18:02:31.512Z,36.28
2022-08-14T18:05:02.995Z,35.98
2022-08-14T18:07:59.589Z,35.98
2022-08-14T18:10:52.009Z,35.81
2022-08-14T18:13:07.986Z,35.57
2022-08-14T18:15:41.312Z,35.45
2022-08-14T18:18:11.278Z,35.41
2022-08-14T18:21:42.678Z,35.19
2022-08-14T18:23:26.790Z,34.80
2022-08-14T18:25:56.924Z,34.67
2022-08-14T18:28:49.014Z,34.71
2022-08-14T18:31:20.126Z,34.42
2022-08-14T18:33:57.169Z,34.34
2022-08-14T18:37:16.706Z,34.14
2022-08-14T18:40:03.556Z,34.16
2022-08-14T18:42:33.358Z,33.95
2022-08-14T18:45:01.793Z,33.83
2022-08-14T18:48:03.314Z,33.80
2022-08-14T18:50:27.040Z,33.64
2022-08-14T18:53:06.888Z,33.57
2022-08-14T18:55:33.519Z,33.46
2022-08-14T18:58:00.870Z,33.46
2022-08-14T19:00:33.105Z,33.36
2022-08-14T19:03:05.042Z,33.22
2022-08-14T19:05:37.749Z,33.15
2022-08-14T19:08:24.896Z,33.06
2022-08-14T19:11:06.054Z,32.89
2022-08-14T19:13:44.431Z,32.85
2022-08-14T19:16:22.986Z,32.65
2022-08-14T19:18:52.227Z,32.54
2022-08-14T19:21:29.878Z,32.41
2022-08-14T19:24:27.310Z,32.36
2022-08-14T19:27:24.210Z,32.25
2022-08-14T19:30:19.647Z,32.07
2022-08-14T19:32:50.983Z,31.95
2022-08-14T19:35:19.723Z,31.95
2022-08-14T19:37:54.087Z,31.84
2022-08-14T19:40:42.708Z,31.79
2022-08-14T19:43:22.573Z,31.65
2022-08-14T19:46:37.870Z,31.46
2022-08-14T19:48:59.544Z,31.41
2022-08-14T19:51:32.739Z,31.38
2022-08-14T19:54:13.299Z,31.32
2022-08-14T19:56:46.014Z,31.28
2022-08-14T19:59:18.504Z,31.22
2022-08-14T20:01:49.494Z,31.10
2022-08-14T20:04:45.100Z,31.06
2022-08-14T20:07:09.290Z,30.91
2022-08-14T20:11:03.749Z,30.85
2022-08-14T20:12:36.372Z,30.77
2022-08-14T20:15:18.191Z,30.69
2022-08-14T20:17:54.260Z,30.64
2022-08-14T20:20:30.755Z,30.52
2022-08-14T20:23:11.243Z,30.41
2022-08-14T20:25:45.428Z,30.37
2022-08-14T20:28:31.965Z,30.25
2022-08-14T20:31:19.366Z,30.12
2022-08-14T20:34:07.907Z,30.12
2022-08-14T20:36:46.394Z,30.03
2022-08-14T20:39:15.480Z,29.97
2022-08-14T20:41:49.845Z,29.93
2022-08-14T20:44:40.687Z,29.82
2022-08-14T20:47:08.046Z,29.79
2022-08-14T20:49:36.394Z,29.76
2022-08-14T20:52:19.931Z,29.64
2022-08-14T20:54:50.650Z,29.56
2022-08-14T20:57:18.794Z,29.44
2022-08-14T20:59:53.390Z,29.38
2022-08-14T21:02:30.716Z,29.30
2022-08-14T21:05:16.099Z,29.29
2022-08-14T21:07:44.536Z,29.31
2022-08-14T21:10:35.280Z,29.26
2022-08-14T21:13:14.443Z,29.15
2022-08-14T21:15:57.782Z,29.07
2022-08-14T21:18:32.602Z,29.08
2022-08-14T21:21:07.474Z,28.99
2022-08-14T21:23:54.267Z,28.80
2022-08-14T21:26:50.593Z,28.80
2022-08-14T21:29:19.406Z,28.81
2022-08-14T21:31:55.749Z,28.72
2022-08-14T21:34:31.079Z,28.66
2022-08-14T21:37:07.827Z,28.70
2022-08-14T21:39:36.153Z,28.60
2022-08-14T21:42:05.721Z,28.58
2022-08-14T21:44:42.740Z,28.53
2022-08-14T21:47:12.574Z,28.36
2022-08-14T21:49:40.126Z,28.25
2022-08-14T21:52:51.863Z,28.27
2022-08-14T21:55:00.623Z,28.15
2022-08-14T21:57:53.531Z,28.13
2022-08-14T22:00:35.009Z,28.10
2022-08-14T22:03:10.081Z,28.09
2022-08-14T22:05:39.668Z,28.05
2022-08-14T22:08:07.478Z,28.07
2022-08-14T22:10:42.499Z,28.03
2022-08-14T22:13:12.314Z,27.82
2022-08-14T22:15:43.805Z,27.68
2022-08-14T22:18:20.354Z,27.85
2022-08-14T22:20:53.682Z,27.74
2022-08-14T22:23:23.067Z,27.65
2022-08-14T22:25:50.372Z,27.72
2022-08-14T22:28:25.327Z,27.47
2022-08-14T22:30:55.300Z,27.35
2022-08-14T22:33:30.893Z,27.27
2022-08-14T22:35:59.590Z,27.03
2022-08-14T22:38:35.517Z,27.01
2022-08-14T22:41:25.808Z,26.88
2022-08-14T22:43:56.586Z,26.87
2022-08-14T22:46:26.054Z,26.85
2022-08-14T22:48:53.802Z,26.73
2022-08-14T22:51:22.858Z,26.62
2022-08-14T22:53:52.486Z,26.57
2022-08-14T22:56:22.260Z,26.51
2022-08-14T22:58:57.896Z,26.58
2022-08-14T23:01:57.223Z,26.39
2022-08-14T23:04:35.859Z,26.39
2022-08-14T23:07:22.967Z,26.36
2022-08-14T23:09:57.487Z,26.23
2022-08-14T23:12:30.535Z,26.20
2022-08-14T23:14:59.994Z,26.24
2022-08-14T23:17:28.178Z,26.27
2022-08-14T23:20:18.749Z,26.16
2022-08-14T23:22:48.701Z,26.24
2022-08-14T23:25:32.427Z,26.16
2022-08-14T23:28:07.002Z,26.15
2022-08-14T23:30:55.363Z,26.08
2022-08-14T23:33:22.106Z,26.02
2022-08-14T23:35:59.118Z,25.96
2022-08-14T23:38:30.592Z,25.92
2022-08-14T23:41:00.856Z,25.88
2022-08-14T23:43:31.038Z,25.83
2022-08-14T23:45:58.949Z,25.82
2022-08-14T23:48:28.154Z,25.76
2022-08-14T23:50:55.775Z,25.73
2022-08-14T23:53:47.235Z,25.65
2022-08-14T23:56:16.562Z,25.54
2022-08-14T23:58:49.230Z,25.54
